メインページ
METAR-TAF:

METAR-TAF

空港 :

Fort Chipewyan, アルバータ州, カナダ

緯度: 58-46N, 経度: 111-07W, 海抜: 232m

現時点の気象観測

当レポートは52分前の11:03(UTC)に作成
東/南東の風 6kt
気温 -20°C
湿度 84%
気圧 1011 hPa
視程: 2.0km
高度2300ftの曇り
小雪

METAR: CYPY 141103Z AUTO 11006KT 1 1/4SM -SN OVC023 M20/M22 A2984 RMK SLP139

時間: 04:55 (11:55 UTC)

予報

当レポートは12時間17分前の23:38(UTC)に作成
予報は14日の 00時(UTC)から 14日の 07時(UTC)まで有効
南/南東の風 5kt
視程: 10km
晴天
14日の 00時(UTC)から 14日の 07時(UTC)まで一時的に
視程: 8.0km
煙霧

TAF: CYPY 132338Z 1400/1407 15005KT P6SM SKC TEMPO 1400/1407 5SM HZ RMK FCST BASED ON AUTO OBS. NXT FCST WILL BE ISSUED AT 141245Z

4,000以上の空港の気象観測と天気予報(METAR報とTAF報)

利用可能な観測所は地図上に黄色い丸と赤い丸で示す。

丸の上にカーソルを重ねると観測所名を参照できる。

次にクリックすると気象観測と天気予報を参照できる。

マップの切り替え:黒色「×」印の緑ボタンをクリックして拡大、「-」印の緑ボタンをクリックして縮小、緑色の三角印をクリックして隣りの地図に切り替え


METAR-TAF: